Time;durP1;ratioP1;P1;durP2;ratioP2;P2;SDS_P1;SDS_P2;PMS_P1;PMS_P2;Temp;Humidity;BMP_temperature;BMP_pressure;BME280_temperature;BME280_humidity;BME280_pressure;Samples;Min_cycle;Max_cycle;Signal;HPM_P1;HPM_P2
2023/04/30 00:01:18;;;;;;;;;;;;;;;11.86;nan;100905.97;5030970;28;19966;-85
2023/04/30 00:03:43;;;;;;;;;;;;;;;11.96;nan;100903.28;5034664;28;19966;-86
2023/04/30 00:06:08;;;;;;;;;;;;;;;11.93;nan;100909.72;5052232;28;19959;-85
2023/04/30 00:08:34;;;;;;;;;;;;;;;11.92;nan;100901.91;5045600;28;19916;-85
2023/04/30 00:10:59;;;;;;;;;;;;;;;11.97;nan;100905.78;5024411;28;20215;-84
2023/04/30 00:13:24;;;;;;;;;;;;;;;12.05;nan;100912.97;5043572;28;19942;-84
2023/04/30 00:15:50;;;;;;;;;;;;;;;12.04;nan;100909.50;5037996;28;20237;-84
2023/04/30 00:18:15;;;;;;;;;;;;;;;12.04;nan;100917.44;5030431;28;19944;-85
2023/04/30 00:20:41;;;;;;;;;;;;;;;12.02;nan;100922.06;5029989;28;19917;-84
2023/04/30 00:23:07;;;;;;;;;;;;;;;12.02;nan;100914.13;5050995;28;20362;-86
2023/04/30 00:25:33;;;;;;;;;;;;;;;11.99;nan;100926.81;5028060;28;19932;-84
2023/04/30 00:27:58;;;;;;;;;;;;;;;12.01;nan;100923.06;5023243;28;19921;-84
2023/04/30 00:30:24;;;;;;;;;;;;;;;12.02;nan;100929.19;5032336;28;19917;-85
2023/04/30 00:32:50;;;;;;;;;;;;;;;12.00;nan;100926.69;5037403;28;20016;-84
2023/04/30 00:35:16;;;;;;;;;;;;;;;12.00;nan;100925.84;5039483;28;19947;-84
2023/04/30 00:37:41;;;;;;;;;;;;;;;11.95;nan;100925.47;5037269;28;19921;-84
2023/04/30 00:40:06;;;;;;;;;;;;;;;11.97;nan;100924.34;5026325;28;19917;-85
2023/04/30 00:42:32;;;;;;;;;;;;;;;11.92;nan;100928.41;5028782;28;19943;-83
2023/04/30 00:44:57;;;;;;;;;;;;;;;11.90;nan;100933.88;5029134;28;19921;-84
2023/04/30 00:47:22;;;;;;;;;;;;;;;11.86;nan;100932.47;5030375;28;20411;-85
2023/04/30 00:49:49;;;;;;;;;;;;;;;11.88;nan;100927.88;5029706;28;19921;-83
2023/04/30 00:52:14;;;;;;;;;;;;;;;11.86;nan;100928.00;5029182;28;19975;-86
2023/04/30 00:54:40;;;;;;;;;;;;;;;11.84;nan;100926.47;5029203;28;19924;-85
2023/04/30 00:57:06;;;;;;;;;;;;;;;11.82;nan;100926.66;5057031;28;20299;-83
2023/04/30 00:59:32;;;;;;;;;;;;;;;11.83;nan;100923.00;5032266;28;19927;-84
2023/04/30 01:01:57;;;;;;;;;;;;;;;11.73;nan;100935.50;5028481;28;20000;-83
2023/04/30 01:04:23;;;;;;;;;;;;;;;11.79;nan;100934.88;5024182;28;19964;-85
2023/04/30 01:06:48;;;;;;;;;;;;;;;11.78;nan;100935.06;5043434;28;19928;-84
2023/04/30 01:09:13;;;;;;;;;;;;;;;11.67;nan;100931.59;5033331;28;19917;-84
2023/04/30 01:11:41;;;;;;;;;;;;;;;11.68;nan;100932.47;5059051;28;19925;-83
2023/04/30 01:14:12;;;;;;;;;;;;;;;11.72;nan;100932.97;5032149;28;19992;-84
2023/04/30 01:16:45;;;;;;;;;;;;;;;11.71;nan;100934.81;5060996;28;19928;-84
2023/04/30 01:19:26;;;;;;;;;;;;;;;11.71;nan;100941.94;5058787;28;19921;-83
2023/04/30 01:21:51;;;;;;;;;;;;;;;11.71;nan;100928.69;5041095;28;20296;-84
2023/04/30 01:24:40;;;;;;;;;;;;;;;11.69;nan;100928.81;5029837;28;19921;-84
2023/04/30 01:27:23;;;;;;;;;;;;;;;11.69;nan;100934.13;5027857;28;20008;-84
2023/04/30 01:29:49;;;;;;;;;;;;;;;11.67;nan;100931.59;5038129;28;19921;-84
2023/04/30 01:32:14;;;;;;;;;;;;;;;11.65;nan;100925.63;5049951;28;20206;-85
2023/04/30 01:34:40;;;;;;;;;;;;;;;11.67;nan;100931.59;5056416;28;19929;-85
2023/04/30 01:37:30;;;;;;;;;;;;;;;11.68;nan;100930.66;5066217;28;19921;-86
2023/04/30 01:39:58;;;;;;;;;;;;;;;11.67;nan;100923.66;5022960;28;20088;-84
2023/04/30 01:42:24;;;;;;;;;;;;;;;11.69;nan;100926.16;5046325;28;19916;-84
2023/04/30 01:44:49;;;;;;;;;;;;;;;11.63;nan;100927.63;5043560;28;20364;-83
2023/04/30 01:47:24;;;;;;;;;;;;;;;11.63;nan;100927.63;5049081;28;19940;-84
2023/04/30 01:50:10;;;;;;;;;;;;;;;11.65;nan;100927.44;5039603;28;20380;-85
2023/04/30 01:52:39;;;;;;;;;;;;;;;11.65;nan;100925.63;5030221;28;19948;-85
2023/04/30 01:55:12;;;;;;;;;;;;;;;11.63;nan;100926.75;5025509;28;19927;-84
2023/04/30 01:57:41;;;;;;;;;;;;;;;11.64;nan;100925.78;5033737;28;20335;-86
2023/04/30 02:00:10;;;;;;;;;;;;;;;11.66;nan;100929.13;5016903;28;20428;-86
2023/04/30 02:02:36;;;;;;;;;;;;;;;11.73;nan;100929.34;5043753;28;20429;-86
2023/04/30 02:05:01;;;;;;;;;;;;;;;11.67;nan;100933.44;5055117;28;19963;-85
2023/04/30 02:07:38;;;;;;;;;;;;;;;11.62;nan;100936.53;5061260;28;19927;-85
2023/04/30 02:10:04;;;;;;;;;;;;;;;11.64;nan;100942.50;5043129;28;19916;-85
2023/04/30 02:12:29;;;;;;;;;;;;;;;11.65;nan;100935.38;5037973;28;20070;-85
2023/04/30 02:14:55;;;;;;;;;;;;;;;11.61;nan;100936.69;5034314;28;20439;-86
2023/04/30 02:17:20;;;;;;;;;;;;;;;11.60;nan;100933.19;5037903;28;19921;-86
2023/04/30 02:19:45;;;;;;;;;;;;;;;11.61;nan;100934.88;5031894;28;19921;-85
2023/04/30 02:22:11;;;;;;;;;;;;;;;11.66;nan;100940.56;5037945;28;20296;-85
2023/04/30 02:24:36;;;;;;;;;;;;;;;11.65;nan;100933.56;5046601;28;20006;-85
2023/04/30 02:27:01;;;;;;;;;;;;;;;11.60;nan;100941.13;5051725;28;19924;-85
2023/04/30 02:29:26;;;;;;;;;;;;;;;11.62;nan;100936.53;5036951;28;20630;-85
2023/04/30 02:31:51;;;;;;;;;;;;;;;11.59;nan;100930.69;5053468;28;19968;-85
2023/04/30 02:34:17;;;;;;;;;;;;;;;11.55;nan;100924.84;5018578;28;20411;-85
2023/04/30 02:36:42;;;;;;;;;;;;;;;11.56;nan;100923.88;5032311;28;19921;-86
2023/04/30 02:39:07;;;;;;;;;;;;;;;11.51;nan;100928.78;5050215;28;19923;-86
2023/04/30 02:41:33;;;;;;;;;;;;;;;11.50;nan;100929.75;5031704;28;20360;-85
2023/04/30 02:43:58;;;;;;;;;;;;;;;11.48;nan;100927.25;5031493;28;19970;-85
2023/04/30 02:46:23;;;;;;;;;;;;;;;11.50;nan;100927.13;5047654;28;19964;-84
2023/04/30 02:48:48;;;;;;;;;;;;;;;11.48;nan;100926.44;5038288;28;19947;-85
2023/04/30 02:51:13;;;;;;;;;;;;;;;11.50;nan;100927.13;5029974;28;19921;-86
2023/04/30 02:53:39;;;;;;;;;;;;;;;11.45;nan;100932.03;5039322;28;19921;-85
2023/04/30 02:56:04;;;;;;;;;;;;;;;11.48;nan;100923.78;5027581;28;19971;-85
2023/04/30 02:58:29;;;;;;;;;;;;;;;11.54;nan;100928.50;5059170;28;20450;-85
2023/04/30 03:00:54;;;;;;;;;;;;;;;11.54;nan;100925.03;5066121;28;20272;-85
2023/04/30 03:03:20;;;;;;;;;;;;;;;11.51;nan;100931.41;5058422;28;19947;-85
2023/04/30 03:05:45;;;;;;;;;;;;;;;11.47;nan;100930.06;5052437;28;19966;-84
2023/04/30 03:08:10;;;;;;;;;;;;;;;11.41;nan;100930.66;5068517;28;19924;-86
2023/04/30 03:10:35;;;;;;;;;;;;;;;11.39;nan;100933.47;5067160;28;19928;-84
2023/04/30 03:13:00;;;;;;;;;;;;;;;11.38;nan;100934.44;5054001;28;20075;-85
2023/04/30 03:15:25;;;;;;;;;;;;;;;11.40;nan;100932.47;5023138;28;19921;-84
2023/04/30 03:17:50;;;;;;;;;;;;;;;11.38;nan;100936.25;5069245;28;19950;-85
2023/04/30 03:20:16;;;;;;;;;;;;;;;11.38;nan;100933.59;5050129;28;20092;-84
2023/04/30 03:22:41;;;;;;;;;;;;;;;11.36;nan;100931.09;5031122;28;19929;-85
2023/04/30 03:25:06;;;;;;;;;;;;;;;11.38;nan;100929.13;5048783;28;19931;-85
2023/04/30 03:27:31;;;;;;;;;;;;;;;11.36;nan;100930.25;5045305;28;19929;-85
2023/04/30 03:29:57;;;;;;;;;;;;;;;11.34;nan;100935.69;5040447;28;20118;-85
2023/04/30 03:32:22;;;;;;;;;;;;;;;11.34;nan;100938.34;5047237;28;19939;-85
2023/04/30 03:34:47;;;;;;;;;;;;;;;11.31;nan;100925.41;5048040;28;19974;-86
2023/04/30 03:37:12;;;;;;;;;;;;;;;11.36;nan;100927.63;5065903;28;19927;-85
2023/04/30 03:39:37;;;;;;;;;;;;;;;11.39;nan;100920.22;5067884;28;20426;-86
2023/04/30 03:42:03;;;;;;;;;;;;;;;11.40;nan;100923.69;5044673;28;19920;-84
2023/04/30 03:44:28;;;;;;;;;;;;;;;11.45;nan;100926.72;5037662;28;19970;-85
2023/04/30 03:46:53;;;;;;;;;;;;;;;11.41;nan;100933.28;5055365;28;20031;-84
2023/04/30 03:49:18;;;;;;;;;;;;;;;11.45;nan;100921.44;5024106;28;19948;-85
2023/04/30 03:51:44;;;;;;;;;;;;;;;11.47;nan;100924.78;5039885;28;20400;-85
2023/04/30 03:54:09;;;;;;;;;;;;;;;11.44;nan;100935.63;5042744;28;19943;-84
2023/04/30 03:56:35;;;;;;;;;;;;;;;11.39;nan;100929.94;5048332;28;19927;-85
2023/04/30 03:59:00;;;;;;;;;;;;;;;11.34;nan;100943.63;5053321;28;20126;-86
2023/04/30 04:01:25;;;;;;;;;;;;;;;11.38;nan;100938.88;5044921;28;20229;-85
2023/04/30 04:03:51;;;;;;;;;;;;;;;11.35;nan;100936.56;5049608;28;20414;-85
2023/04/30 04:06:16;;;;;;;;;;;;;;;11.35;nan;100931.25;5064410;28;19927;-84
2023/04/30 04:08:42;;;;;;;;;;;;;;;11.37;nan;100929.25;5066149;28;19920;-86
2023/04/30 04:11:07;;;;;;;;;;;;;;;11.30;nan;100922.88;5031286;28;19928;-84
2023/04/30 04:13:33;;;;;;;;;;;;;;;11.30;nan;100923.75;5035194;28;20012;-84
2023/04/30 04:16:13;;;;;;;;;;;;;;;11.25;nan;100931.31;5068784;28;19936;-87
2023/04/30 04:18:38;;;;;;;;;;;;;;;11.29;nan;100923.88;5040582;28;20474;-84
2023/04/30 04:21:03;;;;;;;;;;;;;;;11.32;nan;100935.03;5038358;28;20025;-85
2023/04/30 04:23:29;;;;;;;;;;;;;;;11.31;nan;100930.69;5039789;28;20394;-84
2023/04/30 04:25:56;;;;;;;;;;;;;;;11.32;nan;100936.81;5049695;28;19970;-84
2023/04/30 04:28:21;;;;;;;;;;;;;;;11.32;nan;100936.81;5038564;28;20015;-85
2023/04/30 04:30:48;;;;;;;;;;;;;;;11.43;nan;100939.28;5033260;28;20032;-86
2023/04/30 04:33:13;;;;;;;;;;;;;;;11.37;nan;100946.00;5024354;28;19920;-84
2023/04/30 04:35:38;;;;;;;;;;;;;;;11.39;nan;100937.91;5043547;28;19931;-84
2023/04/30 04:38:03;;;;;;;;;;;;;;;11.35;nan;100942.66;5047956;28;19939;-84
2023/04/30 04:40:29;;;;;;;;;;;;;;;11.47;nan;100943.31;5055458;28;19978;-86
2023/04/30 04:42:54;;;;;;;;;;;;;;;11.48;nan;100952.91;5030202;28;19920;-84
2023/04/30 04:45:20;;;;;;;;;;;;;;;11.53;nan;100957.78;5032918;28;19931;-84
2023/04/30 04:47:46;;;;;;;;;;;;;;;11.55;nan;100956.63;5071488;28;19928;-85
2023/04/30 04:50:11;;;;;;;;;;;;;;;11.59;nan;100951.91;5042045;28;19935;-85
2023/04/30 04:52:38;;;;;;;;;;;;;;;11.66;nan;100952.97;5055497;28;19924;-86
2023/04/30 04:55:03;;;;;;;;;;;;;;;11.61;nan;100949.94;5052509;28;19932;-83
2023/04/30 04:57:28;;;;;;;;;;;;;;;11.67;nan;100952.81;5051910;28;19921;-85
2023/04/30 04:59:54;;;;;;;;;;;;;;;11.69;nan;100948.19;5071612;28;19956;-83
2023/04/30 05:02:20;;;;;;;;;;;;;;;11.67;nan;100951.97;5056207;28;20142;-85
2023/04/30 05:04:46;;;;;;;;;;;;;;;11.74;nan;100949.56;5037112;28;20059;-85
2023/04/30 05:07:11;;;;;;;;;;;;;;;11.76;nan;100950.25;5046564;28;19936;-85
2023/04/30 05:09:36;;;;;;;;;;;;;;;11.82;nan;100947.84;5032542;28;19920;-85
2023/04/30 05:12:02;;;;;;;;;;;;;;;11.91;nan;100946.13;5040047;28;19927;-85
2023/04/30 05:14:27;;;;;;;;;;;;;;;11.93;nan;100946.00;5027661;28;20391;-85
2023/04/30 05:16:52;;;;;;;;;;;;;;;12.13;nan;100951.97;5053498;28;19916;-85
2023/04/30 05:19:18;;;;;;;;;;;;;;;12.25;nan;100948.97;5033450;28;20316;-85
2023/04/30 05:21:43;;;;;;;;;;;;;;;12.32;nan;100949.16;5069330;28;19916;-85
2023/04/30 05:24:08;;;;;;;;;;;;;;;12.35;nan;100954.19;5081469;23;20406;-83
2023/04/30 05:26:33;;;;;;;;;;;;;;;12.40;nan;100951.91;5094242;23;19929;-82
2023/04/30 05:28:59;;;;;;;;;;;;;;;12.40;nan;100951.91;5155128;22;19936;-85
2023/04/30 05:31:24;;;;;;;;;;;;;;;12.39;nan;100955.53;5077202;28;19920;-85
2023/04/30 05:33:50;;;;;;;;;;;;;;;12.39;nan;100963.47;5067916;28;20343;-85
2023/04/30 05:36:15;;;;;;;;;;;;;;;12.39;nan;100958.16;5072067;28;19931;-85
2023/04/30 05:38:40;;;;;;;;;;;;;;;12.48;nan;100959.91;5070322;28;19936;-86
2023/04/30 05:41:05;;;;;;;;;;;;;;;12.51;nan;100964.06;5064893;28;19917;-85
2023/04/30 05:43:31;;;;;;;;;;;;;;;12.49;nan;100958.09;5065183;28;19924;-85
2023/04/30 05:45:56;;;;;;;;;;;;;;;12.47;nan;100960.09;5074683;28;19916;-87
2023/04/30 05:48:21;;;;;;;;;;;;;;;12.58;nan;100961.63;5083741;28;19928;-85
2023/04/30 05:50:46;;;;;;;;;;;;;;;12.75;nan;100963.41;5074215;28;19924;-84
2023/04/30 05:53:12;;;;;;;;;;;;;;;12.89;nan;100965.50;5067048;28;19921;-85
2023/04/30 05:55:37;;;;;;;;;;;;;;;13.11;nan;100956.19;5066119;28;20456;-85
2023/04/30 05:58:03;;;;;;;;;;;;;;;13.34;nan;100964.47;5064771;28;19984;-85
2023/04/30 06:00:28;;;;;;;;;;;;;;;13.75;nan;100961.13;5065753;28;20498;-84
2023/04/30 06:02:53;;;;;;;;;;;;;;;14.05;nan;100966.84;5067570;28;19979;-84
2023/04/30 06:05:18;;;;;;;;;;;;;;;14.34;nan;100969.88;5073736;28;19916;-85
2023/04/30 06:07:43;;;;;;;;;;;;;;;14.20;nan;100966.03;5072670;28;19969;-85
2023/04/30 06:10:09;;;;;;;;;;;;;;;14.04;nan;100966.03;5075915;28;20272;-85
2023/04/30 06:12:34;;;;;;;;;;;;;;;13.50;nan;100962.88;5076263;28;20646;-84
2023/04/30 06:15:00;;;;;;;;;;;;;;;13.38;nan;100965.81;5065340;28;19952;-84
2023/04/30 06:17:25;;;;;;;;;;;;;;;13.36;nan;100964.31;5080875;28;19920;-85
2023/04/30 06:19:50;;;;;;;;;;;;;;;13.42;nan;100962.81;5076366;28;19917;-85
2023/04/30 06:22:15;;;;;;;;;;;;;;;13.52;nan;100966.22;5076352;28;20050;-85
2023/04/30 06:24:40;;;;;;;;;;;;;;;13.76;nan;100966.28;5082292;28;19923;-85
2023/04/30 06:27:05;;;;;;;;;;;;;;;14.22;nan;100964.03;5081160;28;19924;-85
2023/04/30 06:29:31;;;;;;;;;;;;;;;14.54;nan;100962.44;5071785;28;19928;-85
2023/04/30 06:31:56;;;;;;;;;;;;;;;14.97;nan;100964.84;5075047;28;19935;-86
2023/04/30 06:34:21;;;;;;;;;;;;;;;15.46;nan;100970.88;5074358;28;20394;-83
2023/04/30 06:36:46;;;;;;;;;;;;;;;15.95;nan;100972.50;5074711;28;20275;-83
2023/04/30 06:39:15;;;;;;;;;;;;;;;15.95;nan;100961.00;5075766;28;19917;-85
2023/04/30 06:41:41;;;;;;;;;;;;;;;15.80;nan;100969.75;5075829;28;19958;-83
2023/04/30 06:44:07;;;;;;;;;;;;;;;15.70;nan;100974.47;5079167;28;19916;-84
2023/04/30 06:46:33;;;;;;;;;;;;;;;15.48;nan;100976.84;5080453;28;19965;-84
2023/04/30 06:48:58;;;;;;;;;;;;;;;15.38;nan;100978.09;5069923;28;19965;-84
2023/04/30 06:51:23;;;;;;;;;;;;;;;15.04;nan;100976.50;5080386;28;19920;-83
2023/04/30 06:53:49;;;;;;;;;;;;;;;14.81;nan;100965.72;5071451;28;19962;-86
2023/04/30 06:56:14;;;;;;;;;;;;;;;14.72;nan;100972.06;5054077;28;20392;-83
2023/04/30 06:58:39;;;;;;;;;;;;;;;14.71;nan;100973.06;5059769;28;19952;-87
2023/04/30 07:01:04;;;;;;;;;;;;;;;15.06;nan;100966.50;5068724;28;19927;-83
2023/04/30 07:03:30;;;;;;;;;;;;;;;15.09;nan;100974.16;5075057;28;19916;-83
2023/04/30 07:05:55;;;;;;;;;;;;;;;15.35;nan;100979.25;5069070;28;20291;-86
2023/04/30 07:08:21;;;;;;;;;;;;;;;15.07;nan;100971.66;5078386;28;20367;-86
2023/04/30 07:10:46;;;;;;;;;;;;;;;15.83;nan;100977.41;5079195;28;19924;-86
2023/04/30 07:13:11;;;;;;;;;;;;;;;15.94;nan;100968.16;5070859;28;19985;-86
2023/04/30 07:15:36;;;;;;;;;;;;;;;15.67;nan;100970.28;5062758;28;19924;-85
2023/04/30 07:18:03;;;;;;;;;;;;;;;15.60;nan;100965.81;5065240;28;20005;-86
2023/04/30 07:20:28;;;;;;;;;;;;;;;15.74;nan;100964.28;5072337;28;19921;-86
2023/04/30 07:22:54;;;;;;;;;;;;;;;16.43;nan;100967.00;5075563;28;19974;-87
2023/04/30 07:25:19;;;;;;;;;;;;;;;16.79;nan;100967.19;5083048;28;19923;-86
2023/04/30 07:27:45;;;;;;;;;;;;;;;17.26;nan;100970.56;5075553;28;19926;-85
2023/04/30 07:30:13;;;;;;;;;;;;;;;17.49;nan;100968.59;5071253;28;20315;-86
2023/04/30 07:32:39;;;;;;;;;;;;;;;17.62;nan;100965.25;5079853;28;19920;-85
2023/04/30 07:35:05;;;;;;;;;;;;;;;17.96;nan;100966.50;5070699;28;19960;-84
2023/04/30 07:37:30;;;;;;;;;;;;;;;18.10;nan;100962.13;5059269;28;19931;-85
2023/04/30 07:39:55;;;;;;;;;;;;;;;18.64;nan;100959.72;5065808;28;19963;-84
2023/04/30 07:42:21;;;;;;;;;;;;;;;18.49;nan;100960.81;5069152;28;19920;-85
2023/04/30 07:44:47;;;;;;;;;;;;;;;18.55;nan;100960.88;5065710;28;19976;-85
2023/04/30 07:47:12;;;;;;;;;;;;;;;18.23;nan;100962.22;5079708;28;20013;-85
2023/04/30 07:49:38;;;;;;;;;;;;;;;18.17;nan;100969.19;5077956;28;19966;-83
2023/04/30 07:52:03;;;;;;;;;;;;;;;17.70;nan;100953.63;5083345;28;19928;-85
2023/04/30 07:54:28;;;;;;;;;;;;;;;17.47;nan;100957.28;5067338;28;19924;-85
2023/04/30 07:56:53;;;;;;;;;;;;;;;16.77;nan;100958.50;5070009;28;20437;-85
2023/04/30 07:59:20;;;;;;;;;;;;;;;16.81;nan;100956.34;5068262;28;19943;-83
2023/04/30 08:01:45;;;;;;;;;;;;;;;17.01;nan;100967.31;5071738;28;19920;-85
2023/04/30 08:04:11;;;;;;;;;;;;;;;17.77;nan;100957.19;5069879;28;19917;-86
2023/04/30 08:06:36;;;;;;;;;;;;;;;17.97;nan;100963.66;5073935;28;19917;-86
2023/04/30 08:09:01;;;;;;;;;;;;;;;18.35;nan;100966.09;5070087;28;20330;-85
2023/04/30 08:11:27;;;;;;;;;;;;;;;19.15;nan;100966.69;5078786;28;19928;-86
2023/04/30 08:13:52;;;;;;;;;;;;;;;19.59;nan;100965.44;5055562;28;19927;-86
2023/04/30 08:16:17;;;;;;;;;;;;;;;19.94;nan;100962.69;5063502;28;20024;-85
2023/04/30 08:18:45;;;;;;;;;;;;;;;20.28;nan;100960.91;5054877;28;19920;-86
2023/04/30 08:21:11;;;;;;;;;;;;;;;20.15;nan;100965.22;5077160;28;19928;-83
2023/04/30 08:23:36;;;;;;;;;;;;;;;20.64;nan;100965.06;5073056;28;20269;-85
2023/04/30 08:26:02;;;;;;;;;;;;;;;19.79;nan;100964.75;5074169;28;19924;-85
2023/04/30 08:28:27;;;;;;;;;;;;;;;19.72;nan;100962.03;5072164;28;19943;-85
2023/04/30 08:30:52;;;;;;;;;;;;;;;20.25;nan;100964.81;5081837;28;19921;-85
2023/04/30 08:33:17;;;;;;;;;;;;;;;20.26;nan;100958.44;5077434;28;19962;-86
2023/04/30 08:35:42;;;;;;;;;;;;;;;18.83;nan;100952.88;5072149;28;19928;-85
2023/04/30 08:38:07;;;;;;;;;;;;;;;19.16;nan;100954.91;5065896;28;20011;-85
2023/04/30 08:40:34;;;;;;;;;;;;;;;20.02;nan;100953.63;5061592;28;20292;-85
2023/04/30 08:43:04;;;;;;;;;;;;;;;19.70;nan;100956.84;5077432;28;20541;-85
2023/04/30 08:45:31;;;;;;;;;;;;;;;19.56;nan;100956.97;5072193;28;19966;-84
2023/04/30 08:47:58;;;;;;;;;;;;;;;19.82;nan;100948.22;5069899;28;19963;-84
2023/04/30 08:50:23;;;;;;;;;;;;;;;19.57;nan;100959.47;5070307;28;20165;-85
2023/04/30 08:52:48;;;;;;;;;;;;;;;19.26;nan;100960.78;5075308;28;20016;-84
2023/04/30 08:55:14;;;;;;;;;;;;;;;19.16;nan;100951.41;5076806;28;19924;-84
2023/04/30 08:57:39;;;;;;;;;;;;;;;19.13;nan;100947.28;5072461;28;19963;-84
2023/04/30 09:00:06;;;;;;;;;;;;;;;19.05;nan;100952.81;5069321;28;20004;-84
2023/04/30 09:02:31;;;;;;;;;;;;;;;18.09;nan;100949.75;5075047;28;20388;-84
2023/04/30 09:04:57;;;;;;;;;;;;;;;17.91;nan;100950.19;5079045;28;19935;-84
2023/04/30 09:07:24;;;;;;;;;;;;;;;17.96;nan;100945.91;5067927;28;19924;-85
2023/04/30 09:09:51;;;;;;;;;;;;;;;17.95;nan;100946.94;5071862;28;20376;-84
2023/04/30 09:12:18;;;;;;;;;;;;;;;18.09;nan;100939.03;5069414;28;19955;-83
2023/04/30 09:15:00;;;;;;;;;;;;;;;18.31;nan;100946.06;5066609;28;19935;-83
2023/04/30 09:17:25;;;;;;;;;;;;;;;18.34;nan;100947.53;5067686;28;19920;-83
2023/04/30 09:19:50;;;;;;;;;;;;;;;18.15;nan;100944.47;5069519;28;20028;-83
2023/04/30 09:22:20;;;;;;;;;;;;;;;18.15;nan;100944.47;5073285;28;19925;-83
2023/04/30 09:24:47;;;;;;;;;;;;;;;18.05;nan;100949.31;5065933;28;19922;-82
2023/04/30 09:27:19;;;;;;;;;;;;;;;18.23;nan;100954.19;5063906;28;19920;-82
2023/04/30 09:29:45;;;;;;;;;;;;;;;18.42;nan;100945.53;5066387;28;19917;-81
2023/04/30 09:32:10;;;;;;;;;;;;;;;18.50;nan;100944.56;5065625;28;19920;-83
2023/04/30 09:34:35;;;;;;;;;;;;;;;19.23;nan;100945.06;5070031;28;19946;-82
2023/04/30 09:37:01;;;;;;;;;;;;;;;19.32;nan;100951.09;5066037;28;19925;-82
2023/04/30 09:39:26;;;;;;;;;;;;;;;19.09;nan;100946.00;5069324;28;20049;-83
2023/04/30 09:41:51;;;;;;;;;;;;;;;18.85;nan;100941.97;5068423;28;20399;-81
2023/04/30 09:44:27;;;;;;;;;;;;;;;18.29;nan;100944.59;5078746;28;19928;-81
2023/04/30 09:46:52;;;;;;;;;;;;;;;18.38;nan;100938.09;5072832;28;20452;-82
2023/04/30 09:49:18;;;;;;;;;;;;;;;17.92;nan;100928.56;5077375;28;19917;-84
2023/04/30 09:52:03;;;;;;;;;;;;;;;17.61;nan;100936.84;5079943;28;19939;-84
2023/04/30 09:54:29;;;;;;;;;;;;;;;18.21;nan;100940.19;5063920;28;19946;-80
2023/04/30 09:56:56;;;;;;;;;;;;;;;18.32;nan;100933.50;5077406;28;20366;-83
2023/04/30 09:59:25;;;;;;;;;;;;;;;18.43;nan;100939.16;5071739;28;19928;-84
2023/04/30 10:01:51;;;;;;;;;;;;;;;18.99;nan;100934.84;5068677;28;19929;-82
2023/04/30 10:04:17;;;;;;;;;;;;;;;19.40;nan;100939.38;5068567;28;19921;-85
2023/04/30 10:06:42;;;;;;;;;;;;;;;19.25;nan;100937.66;5067937;28;19956;-86
2023/04/30 10:09:10;;;;;;;;;;;;;;;19.34;nan;100932.97;5061526;28;19920;-85
2023/04/30 10:11:36;;;;;;;;;;;;;;;19.71;nan;100928.16;5072897;28;20387;-86
2023/04/30 10:14:02;;;;;;;;;;;;;;;19.59;nan;100930.56;5070011;28;20015;-88
2023/04/30 10:16:50;;;;;;;;;;;;;;;19.52;nan;100927.03;5073316;28;19943;-86
2023/04/30 10:19:21;;;;;;;;;;;;;;;18.81;nan;100921.97;5066959;28;20446;-87
2023/04/30 10:21:47;;;;;;;;;;;;;;;18.67;nan;100913.78;5074503;28;19920;-87
2023/04/30 10:24:12;;;;;;;;;;;;;;;18.60;nan;100920.94;5071860;28;19920;-86
2023/04/30 10:26:38;;;;;;;;;;;;;;;18.24;nan;100913.88;5080632;28;19920;-83
2023/04/30 10:29:04;;;;;;;;;;;;;;;18.54;nan;100918.22;5085495;28;19920;-85
2023/04/30 10:31:29;;;;;;;;;;;;;;;18.52;nan;100917.56;5077488;28;19924;-83
2023/04/30 10:34:04;;;;;;;;;;;;;;;18.48;nan;100919.84;5070091;28;19932;-86
2023/04/30 10:36:39;;;;;;;;;;;;;;;18.56;nan;100919.69;5061733;28;20381;-85
2023/04/30 10:39:05;;;;;;;;;;;;;;;18.71;nan;100914.25;5080912;28;20011;-87
2023/04/30 10:41:36;;;;;;;;;;;;;;;18.80;nan;100912.25;5084943;28;19915;-87
2023/04/30 10:47:03;;;;;;;;;;;;;;;19.30;nan;100913.75;5057128;28;20871;-91
2023/04/30 10:49:29;;;;;;;;;;;;;;;19.82;nan;100908.78;5049088;28;19921;-86
2023/04/30 10:54:30;;;;;;;;;;;;;;;18.91;nan;100892.13;5186557;22;19929;-89
2023/04/30 10:57:11;;;;;;;;;;;;;;;19.05;nan;100902.72;5586640;23;19931;-88
2023/04/30 10:59:36;;;;;;;;;;;;;;;19.12;nan;100892.03;5040226;28;20069;-87
2023/04/30 11:05:00;;;;;;;;;;;;;;;19.55;nan;100885.59;5034132;28;19925;-86
2023/04/30 11:07:27;;;;;;;;;;;;;;;20.10;nan;100887.16;5035320;28;19928;-84
2023/04/30 11:09:55;;;;;;;;;;;;;;;20.66;nan;100874.34;5027273;28;19925;-86
2023/04/30 11:12:27;;;;;;;;;;;;;;;21.37;nan;100870.78;5023304;28;20405;-86
2023/04/30 11:14:52;;;;;;;;;;;;;;;22.14;nan;100873.41;5024448;28;19933;-87
2023/04/30 11:17:21;;;;;;;;;;;;;;;22.89;nan;100868.78;5026816;28;20336;-82
2023/04/30 11:19:48;;;;;;;;;;;;;;;22.78;nan;100863.28;5033009;28;19944;-85
2023/04/30 11:22:23;;;;;;;;;;;;;;;22.41;nan;100869.47;5028608;28;19921;-84
2023/04/30 11:24:48;;;;;;;;;;;;;;;21.62;nan;100869.03;5026969;28;20038;-83
2023/04/30 11:27:13;;;;;;;;;;;;;;;21.96;nan;100874.19;5021345;28;19929;-82
2023/04/30 11:29:39;;;;;;;;;;;;;;;21.89;nan;100868.84;5027170;28;20460;-85
2023/04/30 11:32:04;;;;;;;;;;;;;;;22.20;nan;100864.47;5020860;28;19932;-81
2023/04/30 11:34:30;;;;;;;;;;;;;;;23.25;nan;100859.03;5019851;28;20001;-84
2023/04/30 11:36:57;;;;;;;;;;;;;;;24.46;nan;100858.03;5019912;28;19956;-81
2023/04/30 11:39:23;;;;;;;;;;;;;;;24.63;nan;100858.16;5023937;28;19921;-84
2023/04/30 11:41:49;;;;;;;;;;;;;;;24.05;nan;100848.94;5025926;28;19929;-85
2023/04/30 11:44:21;;;;;;;;;;;;;;;24.52;nan;100846.28;5024389;28;20404;-84
2023/04/30 11:46:47;;;;;;;;;;;;;;;25.34;nan;100848.00;5021943;28;19974;-84
2023/04/30 11:49:15;;;;;;;;;;;;;;;25.01;nan;100850.31;5031132;28;19921;-84
2023/04/30 11:51:40;;;;;;;;;;;;;;;24.88;nan;100849.75;5033469;28;19917;-84
2023/04/30 11:54:07;;;;;;;;;;;;;;;26.06;nan;100853.63;5016151;28;19924;-84
2023/04/30 11:56:36;;;;;;;;;;;;;;;26.10;nan;100844.97;5008943;28;19975;-84
2023/04/30 11:59:08;;;;;;;;;;;;;;;26.63;nan;100843.63;5017506;28;19921;-84
2023/04/30 12:01:36;;;;;;;;;;;;;;;26.59;nan;100840.59;5021842;28;19921;-84
2023/04/30 12:04:06;;;;;;;;;;;;;;;26.58;nan;100835.44;5022568;28;19925;-85
2023/04/30 12:06:31;;;;;;;;;;;;;;;26.11;nan;100827.66;5024887;28;19921;-84
2023/04/30 12:08:57;;;;;;;;;;;;;;;25.33;nan;100843.63;5010710;28;20025;-84
2023/04/30 12:11:24;;;;;;;;;;;;;;;24.33;nan;100838.25;5024277;28;19991;-86
2023/04/30 12:13:50;;;;;;;;;;;;;;;23.60;nan;100838.63;5018691;28;19983;-84
2023/04/30 12:16:16;;;;;;;;;;;;;;;23.11;nan;100835.97;5023387;28;19931;-84
2023/04/30 12:18:41;;;;;;;;;;;;;;;22.54;nan;100828.09;5019153;28;19917;-81
2023/04/30 12:21:06;;;;;;;;;;;;;;;22.77;nan;100703.41;5015030;28;20001;-84
2023/04/30 12:23:31;;;;;;;;;;;;;;;23.11;nan;100701.09;5016634;28;19924;-84
2023/04/30 12:25:58;;;;;;;;;;;;;;;23.22;nan;100813.63;5017910;28;19921;-84
2023/04/30 12:28:23;;;;;;;;;;;;;;;23.39;nan;100694.25;5025006;28;19995;-84
2023/04/30 12:30:49;;;;;;;;;;;;;;;23.01;nan;100690.88;5010358;28;20461;-84
2023/04/30 12:33:16;;;;;;;;;;;;;;;22.79;nan;100676.22;5023666;28;19929;-84
2023/04/30 12:35:42;;;;;;;;;;;;;;;22.76;nan;100808.78;5019812;28;20060;-84
2023/04/30 12:38:08;;;;;;;;;;;;;;;22.63;nan;100823.25;5020398;28;20417;-83
2023/04/30 12:40:33;;;;;;;;;;;;;;;22.10;nan;100811.09;5023488;28;19921;-84
2023/04/30 12:43:03;;;;;;;;;;;;;;;21.85;nan;100814.59;5019225;28;19925;-84
2023/04/30 12:45:43;;;;;;;;;;;;;;;21.56;nan;100815.25;5019986;28;20003;-84
2023/04/30 12:48:08;;;;;;;;;;;;;;;21.36;nan;100804.59;5028702;28;19927;-83
2023/04/30 12:50:33;;;;;;;;;;;;;;;20.71;nan;100800.13;5019891;28;19926;-82
2023/04/30 12:53:01;;;;;;;;;;;;;;;20.46;nan;100791.88;5023924;28;19975;-82
2023/04/30 12:55:28;;;;;;;;;;;;;;;20.33;nan;100792.75;5022517;28;20373;-82
2023/04/30 12:58:20;;;;;;;;;;;;;;;20.47;nan;100790.03;5019219;28;19932;-82
2023/04/30 13:00:49;;;;;;;;;;;;;;;20.41;nan;100783.63;5011031;28;19929;-82
2023/04/30 13:03:15;;;;;;;;;;;;;;;20.00;nan;100784.75;5031642;28;19957;-82